sensor_id;sensor_type;location;lat;lon;timestamp;P1;durP1;ratioP1;P2;durP2;ratioP2
29452;SDS011;16424;50.956;5.320;2022-09-24T00:01:18;26.52;;;18.38;;
29452;SDS011;16424;50.956;5.320;2022-09-24T00:03:50;21.77;;;16.67;;
29452;SDS011;16424;50.956;5.320;2022-09-24T00:06:32;24.23;;;17.67;;
29452;SDS011;16424;50.956;5.320;2022-09-24T00:09:00;24.90;;;17.63;;
29452;SDS011;16424;50.956;5.320;2022-09-24T00:11:26;27.88;;;18.88;;
29452;SDS011;16424;50.956;5.320;2022-09-24T00:13:53;22.40;;;16.10;;
29452;SDS011;16424;50.956;5.320;2022-09-24T00:16:21;22.88;;;16.92;;
29452;SDS011;16424;50.956;5.320;2022-09-24T00:18:49;27.17;;;18.77;;
29452;SDS011;16424;50.956;5.320;2022-09-24T00:23:49;20.23;;;14.57;;
29452;SDS011;16424;50.956;5.320;2022-09-24T00:26:16;21.80;;;15.82;;
29452;SDS011;16424;50.956;5.320;2022-09-24T00:29:01;21.73;;;16.33;;
29452;SDS011;16424;50.956;5.320;2022-09-24T00:31:30;22.33;;;16.35;;
29452;SDS011;16424;50.956;5.320;2022-09-24T00:33:56;21.77;;;15.32;;
29452;SDS011;16424;50.956;5.320;2022-09-24T00:36:22;20.75;;;14.80;;
29452;SDS011;16424;50.956;5.320;2022-09-24T00:38:52;22.45;;;16.73;;
29452;SDS011;16424;50.956;5.320;2022-09-24T00:41:20;21.10;;;15.18;;
29452;SDS011;16424;50.956;5.320;2022-09-24T00:43:47;23.75;;;16.50;;
29452;SDS011;16424;50.956;5.320;2022-09-24T00:46:18;22.25;;;16.17;;
29452;SDS011;16424;50.956;5.320;2022-09-24T00:48:57;22.33;;;16.85;;
29452;SDS011;16424;50.956;5.320;2022-09-24T00:51:30;26.58;;;16.90;;
29452;SDS011;16424;50.956;5.320;2022-09-24T00:54:05;22.45;;;16.20;;
29452;SDS011;16424;50.956;5.320;2022-09-24T00:56:38;23.48;;;15.15;;
29452;SDS011;16424;50.956;5.320;2022-09-24T00:59:06;24.02;;;16.20;;
29452;SDS011;16424;50.956;5.320;2022-09-24T01:01:35;22.70;;;16.35;;
29452;SDS011;16424;50.956;5.320;2022-09-24T01:04:01;26.45;;;16.95;;
29452;SDS011;16424;50.956;5.320;2022-09-24T01:06:30;22.88;;;16.00;;
29452;SDS011;16424;50.956;5.320;2022-09-24T01:08:55;27.77;;;18.33;;
29452;SDS011;16424;50.956;5.320;2022-09-24T01:23:01;26.90;;;17.00;;
29452;SDS011;16424;50.956;5.320;2022-09-24T01:28:33;25.95;;;17.50;;
29452;SDS011;16424;50.956;5.320;2022-09-24T01:31:35;25.98;;;17.67;;
29452;SDS011;16424;50.956;5.320;2022-09-24T01:34:08;26.98;;;18.50;;
29452;SDS011;16424;50.956;5.320;2022-09-24T01:36:37;33.72;;;19.52;;
29452;SDS011;16424;50.956;5.320;2022-09-24T01:39:05;28.58;;;18.77;;
29452;SDS011;16424;50.956;5.320;2022-09-24T01:41:33;26.15;;;17.55;;
29452;SDS011;16424;50.956;5.320;2022-09-24T01:44:01;29.63;;;18.98;;
29452;SDS011;16424;50.956;5.320;2022-09-24T01:46:31;28.73;;;18.00;;
29452;SDS011;16424;50.956;5.320;2022-09-24T01:48:58;27.02;;;18.23;;
29452;SDS011;16424;50.956;5.320;2022-09-24T01:51:25;24.67;;;16.33;;
29452;SDS011;16424;50.956;5.320;2022-09-24T01:54:40;20.88;;;16.05;;
29452;SDS011;16424;50.956;5.320;2022-09-24T01:56:44;23.42;;;15.73;;
29452;SDS011;16424;50.956;5.320;2022-09-24T02:01:52;22.33;;;15.02;;
29452;SDS011;16424;50.956;5.320;2022-09-24T02:04:20;21.77;;;14.00;;
29452;SDS011;16424;50.956;5.320;2022-09-24T02:06:59;21.17;;;15.43;;
29452;SDS011;16424;50.956;5.320;2022-09-24T02:09:36;21.20;;;13.25;;
29452;SDS011;16424;50.956;5.320;2022-09-24T02:12:14;22.80;;;13.60;;
29452;SDS011;16424;50.956;5.320;2022-09-24T02:14:58;22.05;;;13.38;;
29452;SDS011;16424;50.956;5.320;2022-09-24T02:17:29;18.98;;;14.15;;
29452;SDS011;16424;50.956;5.320;2022-09-24T02:19:59;21.33;;;15.07;;
29452;SDS011;16424;50.956;5.320;2022-09-24T02:22:29;23.63;;;15.85;;
29452;SDS011;16424;50.956;5.320;2022-09-24T02:24:57;25.55;;;15.77;;
29452;SDS011;16424;50.956;5.320;2022-09-24T02:27:26;23.45;;;14.57;;
29452;SDS011;16424;50.956;5.320;2022-09-24T02:29:53;20.98;;;14.50;;
29452;SDS011;16424;50.956;5.320;2022-09-24T02:32:23;23.27;;;15.35;;
29452;SDS011;16424;50.956;5.320;2022-09-24T02:34:52;21.58;;;14.85;;
29452;SDS011;16424;50.956;5.320;2022-09-24T02:37:23;22.00;;;15.35;;
29452;SDS011;16424;50.956;5.320;2022-09-24T02:39:49;21.92;;;14.98;;
29452;SDS011;16424;50.956;5.320;2022-09-24T02:42:18;21.55;;;14.85;;
29452;SDS011;16424;50.956;5.320;2022-09-24T02:44:45;21.63;;;15.68;;
29452;SDS011;16424;50.956;5.320;2022-09-24T02:47:11;23.95;;;15.57;;
29452;SDS011;16424;50.956;5.320;2022-09-24T02:49:37;23.98;;;16.42;;
29452;SDS011;16424;50.956;5.320;2022-09-24T02:52:03;26.40;;;15.65;;
29452;SDS011;16424;50.956;5.320;2022-09-24T02:54:29;20.95;;;15.75;;
29452;SDS011;16424;50.956;5.320;2022-09-24T02:56:55;24.77;;;15.15;;
29452;SDS011;16424;50.956;5.320;2022-09-24T02:59:21;21.17;;;15.43;;
29452;SDS011;16424;50.956;5.320;2022-09-24T03:01:47;23.60;;;15.75;;
29452;SDS011;16424;50.956;5.320;2022-09-24T03:04:14;25.08;;;15.48;;
29452;SDS011;16424;50.956;5.320;2022-09-24T03:06:40;23.58;;;15.10;;
29452;SDS011;16424;50.956;5.320;2022-09-24T03:09:06;20.98;;;15.55;;
29452;SDS011;16424;50.956;5.320;2022-09-24T03:11:32;22.67;;;15.10;;
29452;SDS011;16424;50.956;5.320;2022-09-24T03:13:59;27.90;;;16.08;;
29452;SDS011;16424;50.956;5.320;2022-09-24T03:16:25;20.90;;;14.90;;
29452;SDS011;16424;50.956;5.320;2022-09-24T03:18:51;22.95;;;14.75;;
29452;SDS011;16424;50.956;5.320;2022-09-24T03:21:18;26.25;;;16.20;;
29452;SDS011;16424;50.956;5.320;2022-09-24T03:23:44;21.08;;;15.15;;
29452;SDS011;16424;50.956;5.320;2022-09-24T03:26:10;24.98;;;15.90;;
29452;SDS011;16424;50.956;5.320;2022-09-24T03:28:36;26.35;;;15.80;;
29452;SDS011;16424;50.956;5.320;2022-09-24T03:31:02;21.20;;;15.55;;
29452;SDS011;16424;50.956;5.320;2022-09-24T03:36:05;18.00;;;14.18;;
29452;SDS011;16424;50.956;5.320;2022-09-24T03:38:34;19.50;;;15.20;;
29452;SDS011;16424;50.956;5.320;2022-09-24T03:41:00;20.63;;;14.50;;
29452;SDS011;16424;50.956;5.320;2022-09-24T03:43:27;29.00;;;15.05;;
29452;SDS011;16424;50.956;5.320;2022-09-24T03:45:53;24.17;;;15.60;;
29452;SDS011;16424;50.956;5.320;2022-09-24T03:48:19;20.10;;;14.35;;
29452;SDS011;16424;50.956;5.320;2022-09-24T03:50:47;25.75;;;16.02;;
29452;SDS011;16424;50.956;5.320;2022-09-24T03:53:13;27.95;;;15.32;;
29452;SDS011;16424;50.956;5.320;2022-09-24T03:55:47;22.00;;;14.98;;
29452;SDS011;16424;50.956;5.320;2022-09-24T03:58:17;23.00;;;15.32;;
29452;SDS011;16424;50.956;5.320;2022-09-24T04:00:43;26.45;;;15.43;;
29452;SDS011;16424;50.956;5.320;2022-09-24T04:03:11;24.23;;;14.75;;
29452;SDS011;16424;50.956;5.320;2022-09-24T04:05:37;20.83;;;14.52;;
29452;SDS011;16424;50.956;5.320;2022-09-24T04:08:03;25.48;;;16.30;;
29452;SDS011;16424;50.956;5.320;2022-09-24T04:10:30;25.20;;;14.70;;
29452;SDS011;16424;50.956;5.320;2022-09-24T04:12:56;23.60;;;15.80;;
29452;SDS011;16424;50.956;5.320;2022-09-24T04:15:21;28.42;;;15.70;;
29452;SDS011;16424;50.956;5.320;2022-09-24T04:17:51;24.95;;;15.10;;
29452;SDS011;16424;50.956;5.320;2022-09-24T04:20:21;22.38;;;15.15;;
29452;SDS011;16424;50.956;5.320;2022-09-24T04:22:49;24.52;;;15.73;;
29452;SDS011;16424;50.956;5.320;2022-09-24T04:25:16;20.98;;;15.40;;
29452;SDS011;16424;50.956;5.320;2022-09-24T04:27:43;22.92;;;15.60;;
29452;SDS011;16424;50.956;5.320;2022-09-24T04:30:10;23.13;;;15.95;;
29452;SDS011;16424;50.956;5.320;2022-09-24T04:32:37;24.02;;;16.45;;
29452;SDS011;16424;50.956;5.320;2022-09-24T04:35:04;25.80;;;16.67;;
29452;SDS011;16424;50.956;5.320;2022-09-24T04:37:30;23.73;;;16.00;;
29452;SDS011;16424;50.956;5.320;2022-09-24T04:39:55;25.42;;;15.50;;
29452;SDS011;16424;50.956;5.320;2022-09-24T04:42:24;23.55;;;16.75;;
29452;SDS011;16424;50.956;5.320;2022-09-24T04:44:49;29.38;;;16.42;;
29452;SDS011;16424;50.956;5.320;2022-09-24T04:47:15;24.88;;;16.55;;
29452;SDS011;16424;50.956;5.320;2022-09-24T04:49:41;24.02;;;15.57;;
29452;SDS011;16424;50.956;5.320;2022-09-24T04:52:13;26.55;;;16.67;;
29452;SDS011;16424;50.956;5.320;2022-09-24T04:54:40;25.65;;;16.70;;
29452;SDS011;16424;50.956;5.320;2022-09-24T04:57:10;27.02;;;16.33;;
29452;SDS011;16424;50.956;5.320;2022-09-24T04:59:37;25.85;;;15.43;;
29452;SDS011;16424;50.956;5.320;2022-09-24T05:02:02;26.40;;;16.90;;
29452;SDS011;16424;50.956;5.320;2022-09-24T05:04:30;27.23;;;16.77;;
29452;SDS011;16424;50.956;5.320;2022-09-24T05:06:56;26.65;;;16.48;;
29452;SDS011;16424;50.956;5.320;2022-09-24T05:09:22;27.13;;;18.08;;
29452;SDS011;16424;50.956;5.320;2022-09-24T05:11:47;29.27;;;18.27;;
29452;SDS011;16424;50.956;5.320;2022-09-24T05:14:13;29.98;;;18.25;;
29452;SDS011;16424;50.956;5.320;2022-09-24T05:16:38;30.30;;;19.02;;
29452;SDS011;16424;50.956;5.320;2022-09-24T05:19:04;26.23;;;18.00;;
29452;SDS011;16424;50.956;5.320;2022-09-24T05:21:30;28.30;;;18.40;;
29452;SDS011;16424;50.956;5.320;2022-09-24T05:23:55;32.40;;;18.40;;
29452;SDS011;16424;50.956;5.320;2022-09-24T05:26:21;28.17;;;18.02;;
29452;SDS011;16424;50.956;5.320;2022-09-24T05:29:05;26.65;;;18.38;;
29452;SDS011;16424;50.956;5.320;2022-09-24T05:31:31;28.42;;;18.05;;
29452;SDS011;16424;50.956;5.320;2022-09-24T05:33:57;29.85;;;19.15;;
29452;SDS011;16424;50.956;5.320;2022-09-24T05:36:22;26.90;;;17.65;;
29452;SDS011;16424;50.956;5.320;2022-09-24T05:38:51;28.02;;;18.10;;
29452;SDS011;16424;50.956;5.320;2022-09-24T05:41:17;30.40;;;18.88;;
29452;SDS011;16424;50.956;5.320;2022-09-24T05:43:44;29.50;;;17.75;;
29452;SDS011;16424;50.956;5.320;2022-09-24T05:46:10;25.27;;;17.88;;
29452;SDS011;16424;50.956;5.320;2022-09-24T05:48:35;28.02;;;18.42;;
29452;SDS011;16424;50.956;5.320;2022-09-24T05:51:01;31.50;;;19.25;;
29452;SDS011;16424;50.956;5.320;2022-09-24T05:53:27;28.08;;;16.80;;
29452;SDS011;16424;50.956;5.320;2022-09-24T05:55:56;32.40;;;18.17;;
29452;SDS011;16424;50.956;5.320;2022-09-24T05:58:22;27.90;;;17.55;;
29452;SDS011;16424;50.956;5.320;2022-09-24T06:00:51;23.15;;;16.60;;
29452;SDS011;16424;50.956;5.320;2022-09-24T06:03:17;25.95;;;16.98;;
29452;SDS011;16424;50.956;5.320;2022-09-24T06:05:48;26.77;;;17.30;;
29452;SDS011;16424;50.956;5.320;2022-09-24T06:08:15;25.52;;;16.83;;
29452;SDS011;16424;50.956;5.320;2022-09-24T06:10:42;24.13;;;15.95;;
29452;SDS011;16424;50.956;5.320;2022-09-24T06:13:09;24.58;;;16.23;;
29452;SDS011;16424;50.956;5.320;2022-09-24T06:15:35;27.40;;;17.02;;
29452;SDS011;16424;50.956;5.320;2022-09-24T06:18:06;26.13;;;17.58;;
29452;SDS011;16424;50.956;5.320;2022-09-24T06:20:32;27.38;;;16.38;;
29452;SDS011;16424;50.956;5.320;2022-09-24T06:23:02;31.27;;;16.90;;
29452;SDS011;16424;50.956;5.320;2022-09-24T06:25:29;25.13;;;16.33;;
29452;SDS011;16424;50.956;5.320;2022-09-24T06:27:56;27.65;;;16.85;;
29452;SDS011;16424;50.956;5.320;2022-09-24T06:30:35;28.23;;;17.23;;
29452;SDS011;16424;50.956;5.320;2022-09-24T06:33:06;25.30;;;15.73;;
29452;SDS011;16424;50.956;5.320;2022-09-24T06:35:37;24.95;;;15.80;;
29452;SDS011;16424;50.956;5.320;2022-09-24T06:38:04;26.05;;;16.50;;
29452;SDS011;16424;50.956;5.320;2022-09-24T06:40:32;26.08;;;16.38;;
29452;SDS011;16424;50.956;5.320;2022-09-24T06:42:58;27.80;;;15.82;;
29452;SDS011;16424;50.956;5.320;2022-09-24T06:45:24;28.60;;;15.88;;
29452;SDS011;16424;50.956;5.320;2022-09-24T06:47:53;22.38;;;14.38;;
29452;SDS011;16424;50.956;5.320;2022-09-24T06:50:21;22.42;;;15.05;;
29452;SDS011;16424;50.956;5.320;2022-09-24T06:52:49;23.63;;;15.07;;
29452;SDS011;16424;50.956;5.320;2022-09-24T06:55:15;24.17;;;15.45;;
29452;SDS011;16424;50.956;5.320;2022-09-24T06:57:41;26.23;;;15.00;;
29452;SDS011;16424;50.956;5.320;2022-09-24T07:00:07;23.17;;;15.23;;
29452;SDS011;16424;50.956;5.320;2022-09-24T07:02:34;21.25;;;13.95;;
29452;SDS011;16424;50.956;5.320;2022-09-24T07:04:59;21.70;;;14.82;;
29452;SDS011;16424;50.956;5.320;2022-09-24T07:07:25;22.55;;;14.10;;
29452;SDS011;16424;50.956;5.320;2022-09-24T07:09:54;26.63;;;15.80;;
29452;SDS011;16424;50.956;5.320;2022-09-24T07:12:20;25.30;;;14.18;;
29452;SDS011;16424;50.956;5.320;2022-09-24T07:14:46;23.98;;;14.70;;
29452;SDS011;16424;50.956;5.320;2022-09-24T07:17:11;22.73;;;13.88;;
29452;SDS011;16424;50.956;5.320;2022-09-24T07:19:37;22.98;;;14.70;;
29452;SDS011;16424;50.956;5.320;2022-09-24T07:22:03;25.02;;;14.27;;
29452;SDS011;16424;50.956;5.320;2022-09-24T07:24:29;21.75;;;13.80;;
29452;SDS011;16424;50.956;5.320;2022-09-24T07:26:55;20.70;;;13.13;;
29452;SDS011;16424;50.956;5.320;2022-09-24T07:29:20;22.10;;;13.02;;
29452;SDS011;16424;50.956;5.320;2022-09-24T07:31:46;23.45;;;13.32;;
29452;SDS011;16424;50.956;5.320;2022-09-24T07:34:12;20.50;;;12.55;;
29452;SDS011;16424;50.956;5.320;2022-09-24T07:36:38;19.60;;;12.65;;
29452;SDS011;16424;50.956;5.320;2022-09-24T07:39:07;21.20;;;13.50;;
29452;SDS011;16424;50.956;5.320;2022-09-24T07:41:34;27.40;;;14.63;;
29452;SDS011;16424;50.956;5.320;2022-09-24T07:44:00;20.40;;;12.98;;
29452;SDS011;16424;50.956;5.320;2022-09-24T07:46:26;21.75;;;14.38;;
29452;SDS011;16424;50.956;5.320;2022-09-24T07:48:52;18.48;;;12.35;;
29452;SDS011;16424;50.956;5.320;2022-09-24T07:51:20;24.65;;;14.50;;
29452;SDS011;16424;50.956;5.320;2022-09-24T07:53:46;22.65;;;13.70;;
29452;SDS011;16424;50.956;5.320;2022-09-24T07:56:13;20.40;;;13.77;;
29452;SDS011;16424;50.956;5.320;2022-09-24T07:58:39;20.83;;;13.82;;
29452;SDS011;16424;50.956;5.320;2022-09-24T08:01:04;18.05;;;13.30;;
29452;SDS011;16424;50.956;5.320;2022-09-24T08:03:30;20.55;;;13.63;;
29452;SDS011;16424;50.956;5.320;2022-09-24T08:05:56;21.05;;;14.25;;
29452;SDS011;16424;50.956;5.320;2022-09-24T08:08:24;19.92;;;12.98;;
29452;SDS011;16424;50.956;5.320;2022-09-24T08:10:50;25.02;;;14.43;;
29452;SDS011;16424;50.956;5.320;2022-09-24T08:13:16;21.60;;;13.20;;
29452;SDS011;16424;50.956;5.320;2022-09-24T08:15:41;20.90;;;13.98;;
29452;SDS011;16424;50.956;5.320;2022-09-24T08:18:09;18.70;;;13.73;;
29452;SDS011;16424;50.956;5.320;2022-09-24T08:20:35;20.33;;;13.10;;
29452;SDS011;16424;50.956;5.320;2022-09-24T08:23:02;22.27;;;13.95;;
29452;SDS011;16424;50.956;5.320;2022-09-24T08:25:29;27.73;;;18.35;;
29452;SDS011;16424;50.956;5.320;2022-09-24T08:28:05;28.38;;;18.73;;
29452;SDS011;16424;50.956;5.320;2022-09-24T08:30:32;27.83;;;17.70;;
29452;SDS011;16424;50.956;5.320;2022-09-24T08:32:59;22.80;;;15.50;;
29452;SDS011;16424;50.956;5.320;2022-09-24T08:35:25;27.63;;;15.32;;
29452;SDS011;16424;50.956;5.320;2022-09-24T08:37:53;32.05;;;18.88;;
29452;SDS011;16424;50.956;5.320;2022-09-24T08:40:21;31.48;;;17.10;;
29452;SDS011;16424;50.956;5.320;2022-09-24T08:42:50;24.25;;;15.80;;
29452;SDS011;16424;50.956;5.320;2022-09-24T08:45:23;20.42;;;14.07;;
29452;SDS011;16424;50.956;5.320;2022-09-24T08:50:43;24.70;;;14.20;;
29452;SDS011;16424;50.956;5.320;2022-09-24T08:53:29;21.27;;;13.27;;
29452;SDS011;16424;50.956;5.320;2022-09-24T08:56:18;20.35;;;12.98;;
29452;SDS011;16424;50.956;5.320;2022-09-24T09:12:45;17.85;;;11.35;;
29452;SDS011;16424;50.956;5.320;2022-09-24T09:15:20;22.33;;;12.48;;
29452;SDS011;16424;50.956;5.320;2022-09-24T09:17:54;22.08;;;12.77;;
29452;SDS011;16424;50.956;5.320;2022-09-24T09:20:26;18.20;;;11.48;;
29452;SDS011;16424;50.956;5.320;2022-09-24T09:23:02;18.05;;;11.00;;
29452;SDS011;16424;50.956;5.320;2022-09-24T09:25:37;16.67;;;11.10;;
29452;SDS011;16424;50.956;5.320;2022-09-24T09:28:10;18.92;;;11.57;;
29452;SDS011;16424;50.956;5.320;2022-09-24T09:30:39;19.73;;;12.07;;
29452;SDS011;16424;50.956;5.320;2022-09-24T09:33:33;17.45;;;10.82;;
29452;SDS011;16424;50.956;5.320;2022-09-24T09:39:17;18.13;;;10.70;;
29452;SDS011;16424;50.956;5.320;2022-09-24T09:44:35;18.80;;;11.18;;
29452;SDS011;16424;50.956;5.320;2022-09-24T09:49:46;23.58;;;12.43;;
29452;SDS011;16424;50.956;5.320;2022-09-24T09:52:17;20.10;;;10.68;;
29452;SDS011;16424;50.956;5.320;2022-09-24T09:54:45;23.00;;;11.50;;
29452;SDS011;16424;50.956;5.320;2022-09-24T09:57:12;18.67;;;11.23;;
29452;SDS011;16424;50.956;5.320;2022-09-24T09:59:44;20.13;;;10.90;;
29452;SDS011;16424;50.956;5.320;2022-09-24T10:02:13;19.17;;;10.63;;
29452;SDS011;16424;50.956;5.320;2022-09-24T10:04:52;15.32;;;11.07;;
29452;SDS011;16424;50.956;5.320;2022-09-24T10:07:20;17.10;;;11.07;;
29452;SDS011;16424;50.956;5.320;2022-09-24T10:09:56;21.10;;;11.60;;
29452;SDS011;16424;50.956;5.320;2022-09-24T10:12:42;18.13;;;11.02;;
29452;SDS011;16424;50.956;5.320;2022-09-24T10:15:17;15.27;;;10.10;;
29452;SDS011;16424;50.956;5.320;2022-09-24T10:17:45;15.88;;;9.93;;
29452;SDS011;16424;50.956;5.320;2022-09-24T10:22:56;22.95;;;11.20;;
29452;SDS011;16424;50.956;5.320;2022-09-24T10:25:27;17.17;;;10.27;;
29452;SDS011;16424;50.956;5.320;2022-09-24T10:28:07;15.85;;;9.82;;
29452;SDS011;16424;50.956;5.320;2022-09-24T10:30:56;13.63;;;8.90;;
29452;SDS011;16424;50.956;5.320;2022-09-24T10:33:34;15.38;;;9.10;;
29452;SDS011;16424;50.956;5.320;2022-09-24T10:36:11;13.50;;;8.77;;
29452;SDS011;16424;50.956;5.320;2022-09-24T10:38:38;12.65;;;8.13;;
29452;SDS011;16424;50.956;5.320;2022-09-24T10:41:13;14.30;;;8.77;;
29452;SDS011;16424;50.956;5.320;2022-09-24T10:43:51;16.60;;;9.45;;
29452;SDS011;16424;50.956;5.320;2022-09-24T10:54:56;12.45;;;8.13;;
29452;SDS011;16424;50.956;5.320;2022-09-24T11:00:42;13.50;;;9.00;;
29452;SDS011;16424;50.956;5.320;2022-09-24T11:05:49;12.57;;;8.57;;
29452;SDS011;16424;50.956;5.320;2022-09-24T11:10:59;17.05;;;10.43;;
29452;SDS011;16424;50.956;5.320;2022-09-24T11:16:29;15.43;;;9.95;;
29452;SDS011;16424;50.956;5.320;2022-09-24T11:38:14;12.80;;;8.15;;
29452;SDS011;16424;50.956;5.320;2022-09-24T11:54:05;12.00;;;8.50;;
29452;SDS011;16424;50.956;5.320;2022-09-24T11:56:40;10.77;;;7.95;;
29452;SDS011;16424;50.956;5.320;2022-09-24T12:01:45;12.80;;;8.07;;
29452;SDS011;16424;50.956;5.320;2022-09-24T12:17:25;13.43;;;8.32;;
29452;SDS011;16424;50.956;5.320;2022-09-24T12:22:45;18.30;;;9.27;;
29452;SDS011;16424;50.956;5.320;2022-09-24T12:25:13;14.68;;;9.07;;
29452;SDS011;16424;50.956;5.320;2022-09-24T12:27:39;15.65;;;9.10;;
29452;SDS011;16424;50.956;5.320;2022-09-24T12:33:16;12.35;;;8.73;;
29452;SDS011;16424;50.956;5.320;2022-09-24T12:38:39;12.18;;;8.23;;
29452;SDS011;16424;50.956;5.320;2022-09-24T12:46:18;12.52;;;8.40;;
29452;SDS011;16424;50.956;5.320;2022-09-24T12:48:53;14.43;;;8.30;;
29452;SDS011;16424;50.956;5.320;2022-09-24T12:51:19;14.32;;;9.13;;
29452;SDS011;16424;50.956;5.320;2022-09-24T12:53:57;14.30;;;8.93;;
29452;SDS011;16424;50.956;5.320;2022-09-24T12:56:30;16.95;;;8.65;;
29452;SDS011;16424;50.956;5.320;2022-09-24T12:58:56;13.73;;;9.00;;
29452;SDS011;16424;50.956;5.320;2022-09-24T13:06:38;15.98;;;9.50;;
29452;SDS011;16424;50.956;5.320;2022-09-24T13:14:46;16.60;;;9.60;;
29452;SDS011;16424;50.956;5.320;2022-09-24T13:17:16;15.02;;;9.25;;
29452;SDS011;16424;50.956;5.320;2022-09-24T13:19:42;25.48;;;10.32;;
29452;SDS011;16424;50.956;5.320;2022-09-24T13:22:42;14.75;;;9.80;;
29452;SDS011;16424;50.956;5.320;2022-09-24T13:30:15;15.02;;;9.38;;
29452;SDS011;16424;50.956;5.320;2022-09-24T13:32:56;15.73;;;9.45;;
29452;SDS011;16424;50.956;5.320;2022-09-24T13:35:25;13.98;;;8.98;;
29452;SDS011;16424;50.956;5.320;2022-09-24T13:38:19;14.02;;;8.93;;
29452;SDS011;16424;50.956;5.320;2022-09-24T13:43:58;16.70;;;9.57;;
29452;SDS011;16424;50.956;5.320;2022-09-24T13:46:28;15.30;;;9.38;;
29452;SDS011;16424;50.956;5.320;2022-09-24T13:48:59;13.60;;;8.90;;
29452;SDS011;16424;50.956;5.320;2022-09-24T13:51:30;12.75;;;8.57;;
29452;SDS011;16424;50.956;5.320;2022-09-24T13:54:10;13.60;;;8.52;;
29452;SDS011;16424;50.956;5.320;2022-09-24T13:56:58;14.85;;;9.02;;
29452;SDS011;16424;50.956;5.320;2022-09-24T13:59:29;13.52;;;9.02;;
29452;SDS011;16424;50.956;5.320;2022-09-24T14:01:55;14.43;;;8.68;;
29452;SDS011;16424;50.956;5.320;2022-09-24T14:04:21;16.85;;;9.35;;
29452;SDS011;16424;50.956;5.320;2022-09-24T14:06:48;14.43;;;8.30;;
29452;SDS011;16424;50.956;5.320;2022-09-24T14:09:27;9.25;;;7.45;;
29452;SDS011;16424;50.956;5.320;2022-09-24T14:11:56;11.07;;;7.40;;
29452;SDS011;16424;50.956;5.320;2022-09-24T14:14:24;12.05;;;8.25;;
29452;SDS011;16424;50.956;5.320;2022-09-24T14:16:51;10.63;;;7.07;;
29452;SDS011;16424;50.956;5.320;2022-09-24T14:19:19;10.95;;;6.57;;
29452;SDS011;16424;50.956;5.320;2022-09-24T14:21:47;10.10;;;6.45;;
29452;SDS011;16424;50.956;5.320;2022-09-24T14:26:50;7.50;;;5.22;;
29452;SDS011;16424;50.956;5.320;2022-09-24T14:29:26;9.38;;;5.90;;
29452;SDS011;16424;50.956;5.320;2022-09-24T14:32:25;10.52;;;6.85;;
29452;SDS011;16424;50.956;5.320;2022-09-24T14:34:56;12.25;;;6.82;;
29452;SDS011;16424;50.956;5.320;2022-09-24T14:37:31;10.68;;;7.43;;
29452;SDS011;16424;50.956;5.320;2022-09-24T14:40:20;11.35;;;7.10;;
29452;SDS011;16424;50.956;5.320;2022-09-24T14:42:47;10.77;;;6.68;;
29452;SDS011;16424;50.956;5.320;2022-09-24T14:45:18;11.50;;;6.93;;
29452;SDS011;16424;50.956;5.320;2022-09-24T14:47:46;11.90;;;6.75;;
29452;SDS011;16424;50.956;5.320;2022-09-24T14:50:32;13.35;;;7.55;;
29452;SDS011;16424;50.956;5.320;2022-09-24T14:53:10;11.60;;;7.40;;
29452;SDS011;16424;50.956;5.320;2022-09-24T14:55:51;12.25;;;7.93;;
29452;SDS011;16424;50.956;5.320;2022-09-24T14:58:24;11.15;;;8.15;;
29452;SDS011;16424;50.956;5.320;2022-09-24T15:00:56;10.45;;;7.22;;
29452;SDS011;16424;50.956;5.320;2022-09-24T15:05:52;10.00;;;6.68;;
29452;SDS011;16424;50.956;5.320;2022-09-24T15:08:27;11.48;;;7.47;;
29452;SDS011;16424;50.956;5.320;2022-09-24T15:10:53;12.13;;;6.43;;
29452;SDS011;16424;50.956;5.320;2022-09-24T15:13:34;8.00;;;6.65;;
29452;SDS011;16424;50.956;5.320;2022-09-24T15:16:05;9.70;;;6.60;;
29452;SDS011;16424;50.956;5.320;2022-09-24T15:18:42;11.45;;;7.45;;
29452;SDS011;16424;50.956;5.320;2022-09-24T15:21:08;10.40;;;6.80;;
29452;SDS011;16424;50.956;5.320;2022-09-24T15:23:35;10.25;;;6.15;;
29452;SDS011;16424;50.956;5.320;2022-09-24T15:26:01;8.35;;;5.63;;
29452;SDS011;16424;50.956;5.320;2022-09-24T15:28:27;9.60;;;5.68;;
29452;SDS011;16424;50.956;5.320;2022-09-24T15:30:54;9.07;;;5.32;;
29452;SDS011;16424;50.956;5.320;2022-09-24T15:33:20;8.05;;;5.68;;
29452;SDS011;16424;50.956;5.320;2022-09-24T15:35:46;7.97;;;5.40;;
29452;SDS011;16424;50.956;5.320;2022-09-24T15:38:13;8.05;;;5.88;;
29452;SDS011;16424;50.956;5.320;2022-09-24T15:40:41;8.73;;;5.60;;
29452;SDS011;16424;50.956;5.320;2022-09-24T15:43:22;7.20;;;4.75;;
29452;SDS011;16424;50.956;5.320;2022-09-24T15:45:49;8.63;;;5.32;;
29452;SDS011;16424;50.956;5.320;2022-09-24T15:48:15;8.98;;;5.88;;
29452;SDS011;16424;50.956;5.320;2022-09-24T15:50:41;7.03;;;5.60;;
29452;SDS011;16424;50.956;5.320;2022-09-24T15:53:22;8.73;;;4.80;;
29452;SDS011;16424;50.956;5.320;2022-09-24T15:55:54;8.93;;;5.60;;
29452;SDS011;16424;50.956;5.320;2022-09-24T15:58:22;6.95;;;5.10;;
29452;SDS011;16424;50.956;5.320;2022-09-24T16:00:48;6.93;;;5.15;;
29452;SDS011;16424;50.956;5.320;2022-09-24T16:03:20;7.25;;;4.60;;
29452;SDS011;16424;50.956;5.320;2022-09-24T16:05:51;7.70;;;5.00;;
29452;SDS011;16424;50.956;5.320;2022-09-24T16:08:17;12.30;;;5.95;;
29452;SDS011;16424;50.956;5.320;2022-09-24T16:10:44;8.88;;;5.30;;
29452;SDS011;16424;50.956;5.320;2022-09-24T16:13:13;12.07;;;5.70;;
29452;SDS011;16424;50.956;5.320;2022-09-24T16:15:39;6.78;;;5.35;;
29452;SDS011;16424;50.956;5.320;2022-09-24T16:18:06;10.32;;;5.60;;
29452;SDS011;16424;50.956;5.320;2022-09-24T16:20:36;6.95;;;4.82;;
29452;SDS011;16424;50.956;5.320;2022-09-24T16:23:02;9.40;;;6.40;;
29452;SDS011;16424;50.956;5.320;2022-09-24T16:25:28;10.02;;;6.82;;
29452;SDS011;16424;50.956;5.320;2022-09-24T16:27:54;11.55;;;6.55;;
29452;SDS011;16424;50.956;5.320;2022-09-24T16:30:22;15.70;;;7.13;;
29452;SDS011;16424;50.956;5.320;2022-09-24T16:32:48;10.32;;;5.70;;
29452;SDS011;16424;50.956;5.320;2022-09-24T16:35:14;9.57;;;5.78;;
29452;SDS011;16424;50.956;5.320;2022-09-24T16:37:39;8.95;;;5.55;;
29452;SDS011;16424;50.956;5.320;2022-09-24T16:40:05;9.05;;;5.78;;
29452;SDS011;16424;50.956;5.320;2022-09-24T16:42:32;12.38;;;6.70;;
29452;SDS011;16424;50.956;5.320;2022-09-24T16:44:58;8.63;;;5.95;;
29452;SDS011;16424;50.956;5.320;2022-09-24T16:47:23;8.95;;;6.40;;
29452;SDS011;16424;50.956;5.320;2022-09-24T16:49:49;9.20;;;6.40;;
29452;SDS011;16424;50.956;5.320;2022-09-24T16:52:15;8.90;;;6.40;;
29452;SDS011;16424;50.956;5.320;2022-09-24T16:54:40;16.55;;;7.25;;
29452;SDS011;16424;50.956;5.320;2022-09-24T16:57:06;10.18;;;6.78;;
29452;SDS011;16424;50.956;5.320;2022-09-24T16:59:32;8.95;;;6.03;;
29452;SDS011;16424;50.956;5.320;2022-09-24T17:01:58;9.48;;;6.10;;
29452;SDS011;16424;50.956;5.320;2022-09-24T17:04:24;7.70;;;5.75;;
29452;SDS011;16424;50.956;5.320;2022-09-24T17:06:54;9.27;;;6.03;;
29452;SDS011;16424;50.956;5.320;2022-09-24T17:09:21;8.57;;;6.20;;
29452;SDS011;16424;50.956;5.320;2022-09-24T17:12:06;14.02;;;9.32;;
29452;SDS011;16424;50.956;5.320;2022-09-24T17:14:31;11.30;;;7.55;;
29452;SDS011;16424;50.956;5.320;2022-09-24T17:17:00;13.63;;;7.35;;
29452;SDS011;16424;50.956;5.320;2022-09-24T17:19:26;10.32;;;7.60;;